createdAt,value
2022-08-22T01:37:34.165Z,100299.13
2022-08-22T01:43:15.372Z,100298.03
2022-08-22T01:48:08.604Z,100309.22
2022-08-22T01:52:22.445Z,100304.31
2022-08-22T01:56:42.753Z,100284.28
2022-08-22T02:01:24.147Z,100294.75
2022-08-22T02:05:37.049Z,100287.97
2022-08-22T02:10:27.939Z,100271.78
2022-08-22T02:37:35.667Z,100269.34
2022-08-22T02:48:36.973Z,100277.50
2022-08-22T02:58:26.082Z,100281.38
2022-08-22T03:03:02.087Z,100255.44
2022-08-22T03:07:13.243Z,100275.03
2022-08-22T03:11:40.790Z,100276.03
2022-08-22T03:17:02.385Z,100270.66
2022-08-22T03:21:28.524Z,100272.13
2022-08-22T03:25:41.680Z,100258.03
2022-08-22T03:29:48.503Z,100281.28
2022-08-22T03:34:22.661Z,100293.81
2022-08-22T03:38:29.802Z,100303.78
2022-08-22T03:43:18.208Z,100301.88
2022-08-22T03:48:23.003Z,100304.28
2022-08-22T03:53:18.619Z,100298.06
2022-08-22T03:57:50.312Z,100301.03
2022-08-22T04:02:41.800Z,100312.88
2022-08-22T04:06:57.761Z,100309.72
2022-08-22T04:11:33.577Z,100314.63
2022-08-22T04:15:59.952Z,100322.13
2022-08-22T04:20:24.627Z,100320.53
2022-08-22T04:24:52.163Z,100322.72
2022-08-22T04:29:01.116Z,100328.72
2022-08-22T04:33:08.394Z,100325.09
2022-08-22T04:37:18.789Z,100323.50
2022-08-22T04:41:24.544Z,100337.31
2022-08-22T04:45:31.968Z,100326.81
2022-08-22T04:49:43.535Z,100336.59
2022-08-22T04:54:14.305Z,100311.44
2022-08-22T04:58:38.819Z,100341.84
2022-08-22T05:02:59.188Z,100349.00
2022-08-22T05:07:16.309Z,100344.31
2022-08-22T05:11:26.789Z,100349.16
2022-08-22T05:15:32.729Z,100349.34
2022-08-22T05:19:42.470Z,100361.69
2022-08-22T05:23:51.840Z,100362.06
2022-08-22T05:28:12.620Z,100349.31
2022-08-22T05:32:21.491Z,100371.00
2022-08-22T05:36:32.501Z,100354.06
2022-08-22T05:40:39.306Z,100381.28
2022-08-22T05:49:25.130Z,100383.22
2022-08-22T05:53:45.780Z,100358.63
2022-08-22T06:15:56.954Z,100407.00
2022-08-22T06:19:58.519Z,100400.81
2022-08-22T06:24:10.475Z,100374.75
2022-08-22T06:28:16.697Z,100374.75
2022-08-22T06:32:59.969Z,100400.41
2022-08-22T06:37:38.670Z,100348.50
2022-08-22T06:42:02.316Z,100405.91
2022-08-22T06:46:36.793Z,100378.41
2022-08-22T06:50:44.819Z,100415.03
2022-08-22T06:55:03.253Z,100414.59
2022-08-22T07:00:05.040Z,100420.50
2022-08-22T07:04:28.670Z,100430.38
2022-08-22T07:09:05.651Z,100416.03
2022-08-22T07:13:20.568Z,100425.44
2022-08-22T07:17:41.249Z,100431.09
2022-08-22T07:21:51.502Z,100429.91
2022-08-22T07:26:12.482Z,100431.94
2022-08-22T07:30:15.246Z,100437.72
2022-08-22T07:35:03.042Z,100415.06
2022-08-22T07:39:50.141Z,100431.63
2022-08-22T07:44:17.717Z,100426.75
2022-08-22T07:49:05.949Z,100434.06
2022-08-22T07:53:15.651Z,100440.25
2022-08-22T07:57:35.052Z,100432.59
2022-08-22T08:02:15.313Z,100429.34
2022-08-22T08:06:17.178Z,100377.34
2022-08-22T08:11:04.425Z,100422.28
2022-08-22T08:15:32.169Z,100426.28
2022-08-22T08:20:04.559Z,100419.72
2022-08-22T13:29:42.688Z,100242.94
2022-08-22T14:58:10.428Z,100267.00
2022-08-22T15:02:19.916Z,100248.63
2022-08-22T15:06:35.031Z,100261.47
2022-08-22T15:11:42.317Z,100259.31
2022-08-22T15:15:59.783Z,100260.59
2022-08-22T15:20:27.856Z,100238.94
2022-08-22T15:24:39.000Z,100269.84
2022-08-22T15:28:53.114Z,100260.03
2022-08-22T15:33:12.897Z,100256.03
2022-08-22T15:37:32.465Z,100265.72
2022-08-22T15:41:46.148Z,100255.84
2022-08-22T15:45:46.870Z,100255.25
2022-08-22T15:49:55.521Z,100250.09
2022-08-22T15:54:24.414Z,100247.69
2022-08-22T15:58:27.079Z,100244.53
2022-08-22T16:02:35.633Z,100253.09
2022-08-22T16:07:44.482Z,100258.13
2022-08-22T16:12:17.653Z,100252.72
2022-08-22T16:17:16.973Z,100242.38
2022-08-22T16:22:12.372Z,100264.72
2022-08-22T16:26:21.022Z,100260.44
2022-08-22T16:30:44.151Z,100240.38
2022-08-22T16:34:52.307Z,100263.03
2022-08-22T16:39:03.573Z,100258.19
2022-08-22T16:43:29.144Z,100260.78
2022-08-22T16:47:58.159Z,100278.28
2022-08-22T16:52:37.390Z,100256.63
2022-08-22T16:57:14.966Z,100285.66
2022-08-22T17:02:00.600Z,100280.09
2022-08-22T17:06:33.382Z,100284.94
2022-08-22T17:10:53.076Z,100267.50
2022-08-22T17:15:05.276Z,100198.09
2022-08-22T17:19:28.455Z,100276.19
2022-08-22T17:23:53.280Z,100294.16
2022-08-22T17:28:30.088Z,100305.44
2022-08-22T17:32:51.395Z,100286.38
2022-08-22T17:42:30.217Z,100324.50
2022-08-22T17:52:36.267Z,100343.50
2022-08-22T18:03:39.296Z,100347.09
2022-08-22T18:12:54.449Z,100353.00
2022-08-22T18:17:25.448Z,100320.28
2022-08-22T18:21:58.539Z,100341.16
2022-08-22T18:26:48.335Z,100373.94
2022-08-22T18:35:53.872Z,100400.44
2022-08-22T18:40:20.970Z,100403.25
2022-08-22T18:44:34.845Z,100408.59
2022-08-22T18:54:16.481Z,100434.16
2022-08-22T18:59:28.297Z,100445.34
2022-08-22T19:09:30.718Z,100394.63
2022-08-22T19:14:30.823Z,100446.56
2022-08-22T19:19:04.773Z,100456.34
2022-08-22T19:23:51.698Z,100461.31
2022-08-22T19:29:19.824Z,100466.88
2022-08-22T19:33:49.926Z,100471.47
2022-08-22T19:39:42.109Z,100470.22
2022-08-22T19:45:15.726Z,100453.13
2022-08-22T19:50:10.415Z,100454.16
2022-08-22T19:54:53.297Z,100454.06
2022-08-22T19:59:35.859Z,100436.66
2022-08-22T20:03:57.902Z,100417.59
2022-08-22T20:08:22.415Z,100461.94
2022-08-22T20:12:41.167Z,100425.56
2022-08-22T20:17:22.876Z,100456.97
2022-08-22T20:22:05.500Z,100450.31
2022-08-22T20:26:25.701Z,100446.66
2022-08-22T20:31:04.843Z,100390.13
2022-08-22T20:35:29.833Z,100416.75
2022-08-22T20:40:03.115Z,100435.41
2022-08-22T20:44:53.465Z,100439.09
2022-08-22T20:49:53.357Z,100437.38
2022-08-22T20:54:26.921Z,100413.84
2022-08-22T20:59:11.663Z,100434.31
2022-08-22T21:03:49.828Z,100431.00
2022-08-22T21:09:08.560Z,100412.63
2022-08-22T21:19:37.663Z,100432.75
2022-08-22T21:24:47.650Z,100443.25
2022-08-22T21:29:41.475Z,100446.97
2022-08-22T21:34:15.122Z,100408.72
2022-08-22T21:38:28.939Z,100419.84
2022-08-22T21:42:48.242Z,100412.81
2022-08-22T21:47:03.077Z,100415.19
2022-08-22T21:51:35.376Z,100400.50
2022-08-22T21:56:16.468Z,100409.53
2022-08-22T22:00:55.334Z,100388.28
2022-08-22T22:05:33.977Z,100383.72
2022-08-22T22:09:54.791Z,100384.50
2022-08-22T22:14:19.987Z,100358.41
2022-08-22T22:18:44.581Z,100373.72
2022-08-22T22:23:01.197Z,100397.38
2022-08-22T22:27:18.207Z,100403.34
2022-08-22T22:31:27.510Z,100389.94
2022-08-22T22:35:44.214Z,100412.38
2022-08-22T22:40:28.368Z,100409.00
2022-08-22T22:45:22.049Z,100407.16
2022-08-22T22:50:39.176Z,100392.66
2022-08-22T22:56:09.629Z,100396.84
2022-08-22T23:17:30.872Z,100377.91
2022-08-22T23:22:50.297Z,100423.63
2022-08-22T23:33:01.746Z,100419.31
2022-08-22T23:37:27.172Z,100424.41
2022-08-22T23:42:17.544Z,100418.47
2022-08-22T23:46:38.501Z,100417.97
2022-08-22T23:50:52.249Z,100428.22
2022-08-22T23:55:19.509Z,100429.81
2022-08-22T23:59:37.050Z,100397.91
